createdAt,value
2022-07-31T00:01:08.997Z,2.47
2022-07-31T00:03:37.347Z,2.95
2022-07-31T00:06:05.961Z,2.47
2022-07-31T00:08:37.309Z,2.65
2022-07-31T00:11:05.579Z,2.63
2022-07-31T00:13:57.867Z,3.00
2022-07-31T00:16:23.725Z,2.92
2022-07-31T00:18:52.048Z,2.60
2022-07-31T00:21:20.445Z,2.55
2022-07-31T00:23:50.111Z,2.47
2022-07-31T00:26:18.456Z,2.80
2022-07-31T00:28:48.760Z,2.50
2022-07-31T00:31:18.312Z,2.83
2022-07-31T00:33:46.766Z,2.53
2022-07-31T00:36:15.225Z,2.72
2022-07-31T00:38:43.586Z,2.75
2022-07-31T00:41:12.009Z,2.70
2022-07-31T00:43:40.341Z,2.55
2022-07-31T00:46:14.445Z,2.47
2022-07-31T00:48:43.201Z,2.60
2022-07-31T00:51:12.454Z,2.60
2022-07-31T00:53:40.773Z,2.20
2022-07-31T00:56:09.050Z,2.45
2022-07-31T00:58:37.590Z,2.95
2022-07-31T01:01:06.236Z,2.53
2022-07-31T01:03:36.981Z,2.83
2022-07-31T01:06:05.552Z,3.10
2022-07-31T01:08:33.962Z,2.50
2022-07-31T01:11:09.866Z,2.65
2022-07-31T01:13:50.287Z,2.95
2022-07-31T01:16:19.513Z,3.05
2022-07-31T01:18:52.057Z,3.00
2022-07-31T01:21:28.439Z,2.90
2022-07-31T01:24:28.468Z,2.83
2022-07-31T01:27:49.607Z,2.63
2022-07-31T01:30:21.108Z,2.75
2022-07-31T01:32:52.674Z,2.28
2022-07-31T01:35:27.768Z,2.60
2022-07-31T01:38:05.881Z,2.47
2022-07-31T01:40:39.013Z,2.42
2022-07-31T01:43:12.880Z,2.10
2022-07-31T01:45:46.172Z,2.63
2022-07-31T01:48:17.161Z,2.38
2022-07-31T01:50:50.616Z,2.47
2022-07-31T01:53:23.639Z,2.25
2022-07-31T01:56:02.671Z,2.60
2022-07-31T01:58:39.703Z,2.35
2022-07-31T02:01:27.727Z,2.70
2022-07-31T02:09:00.432Z,2.88
2022-07-31T02:11:28.964Z,2.35
2022-07-31T02:13:59.055Z,2.47
2022-07-31T02:16:32.521Z,2.22
2022-07-31T02:19:11.493Z,2.55
2022-07-31T02:21:40.315Z,2.88
2022-07-31T02:24:09.742Z,2.78
2022-07-31T02:26:41.319Z,2.47
2022-07-31T02:29:19.542Z,2.33
2022-07-31T02:32:02.097Z,2.55
2022-07-31T02:34:34.987Z,2.42
2022-07-31T02:37:05.747Z,2.50
2022-07-31T02:39:35.401Z,2.10
2022-07-31T02:42:05.654Z,2.58
2022-07-31T02:44:34.946Z,2.40
2022-07-31T02:47:05.967Z,2.50
2022-07-31T02:49:35.288Z,2.72
2022-07-31T02:52:06.858Z,2.80
2022-07-31T02:54:39.177Z,2.30
2022-07-31T02:57:08.247Z,2.78
2022-07-31T02:59:38.340Z,2.70
2022-07-31T03:02:08.498Z,2.92
2022-07-31T03:04:42.551Z,3.15
2022-07-31T03:07:11.282Z,2.33
2022-07-31T03:09:39.704Z,2.72
2022-07-31T03:12:26.908Z,2.65
2022-07-31T03:14:56.698Z,2.67
2022-07-31T03:17:38.224Z,2.67
2022-07-31T03:20:14.623Z,2.50
2022-07-31T03:22:43.803Z,2.47
2022-07-31T03:25:20.144Z,2.35
2022-07-31T03:27:55.587Z,2.20
2022-07-31T03:30:25.989Z,2.45
2022-07-31T03:33:02.522Z,2.45
2022-07-31T03:35:34.059Z,2.10
2022-07-31T03:38:39.713Z,2.60
2022-07-31T03:41:01.362Z,2.10
2022-07-31T03:43:44.319Z,2.40
2022-07-31T03:46:20.424Z,2.30
2022-07-31T03:48:52.275Z,2.20
2022-07-31T03:53:51.833Z,2.40
2022-07-31T03:56:49.719Z,2.30
2022-07-31T03:59:21.697Z,2.40
2022-07-31T04:01:57.273Z,2.08
2022-07-31T04:04:46.105Z,2.10
2022-07-31T04:07:15.142Z,2.30
2022-07-31T04:09:44.036Z,2.28
2022-07-31T04:12:14.265Z,2.60
2022-07-31T04:14:42.909Z,2.50
2022-07-31T04:17:11.512Z,2.38
2022-07-31T04:19:39.965Z,2.20
2022-07-31T04:22:09.716Z,2.70
2022-07-31T04:24:39.480Z,2.70
2022-07-31T04:27:28.050Z,2.00
2022-07-31T04:29:57.852Z,2.08
2022-07-31T04:32:26.282Z,2.13
2022-07-31T04:34:59.965Z,2.25
2022-07-31T04:37:29.837Z,2.00
2022-07-31T04:39:59.157Z,2.63
2022-07-31T04:42:27.488Z,2.40
2022-07-31T04:45:01.501Z,2.30
2022-07-31T04:47:29.886Z,1.85
2022-07-31T04:49:58.901Z,2.42
2022-07-31T04:52:29.761Z,2.20
2022-07-31T04:55:05.486Z,1.98
2022-07-31T04:57:35.285Z,2.65
2022-07-31T05:00:03.876Z,2.47
2022-07-31T05:02:34.185Z,2.17
2022-07-31T05:05:02.913Z,2.30
2022-07-31T05:07:40.710Z,2.10
2022-07-31T05:10:34.725Z,2.72
2022-07-31T05:13:03.908Z,2.45
2022-07-31T05:15:36.645Z,2.38
2022-07-31T05:18:07.568Z,2.40
2022-07-31T05:20:54.772Z,2.67
2022-07-31T05:23:39.121Z,2.53
2022-07-31T05:26:12.267Z,2.95
2022-07-31T05:28:42.014Z,2.80
2022-07-31T05:31:12.479Z,2.67
2022-07-31T05:33:40.893Z,2.60
2022-07-31T05:36:09.547Z,2.53
2022-07-31T05:38:39.387Z,3.22
2022-07-31T05:41:36.741Z,3.03
2022-07-31T05:44:43.226Z,2.75
2022-07-31T05:47:14.016Z,2.78
2022-07-31T05:49:42.603Z,2.75
2022-07-31T05:52:11.407Z,3.05
2022-07-31T05:54:41.409Z,2.75
2022-07-31T05:57:33.794Z,2.78
2022-07-31T06:00:04.784Z,3.15
2022-07-31T06:02:40.176Z,2.85
2022-07-31T06:05:32.052Z,2.85
2022-07-31T06:08:01.657Z,3.05
2022-07-31T06:10:37.106Z,2.80
2022-07-31T06:13:06.240Z,3.10
2022-07-31T06:15:36.619Z,2.90
2022-07-31T06:18:05.955Z,2.75
2022-07-31T06:20:34.548Z,2.50
2022-07-31T06:23:19.806Z,3.05
2022-07-31T06:25:56.524Z,2.85
2022-07-31T06:28:27.279Z,3.05
2022-07-31T06:31:18.495Z,3.03
2022-07-31T06:33:48.081Z,2.97
2022-07-31T06:36:17.216Z,3.00
2022-07-31T06:38:57.301Z,3.20
2022-07-31T06:41:48.317Z,3.30
2022-07-31T06:44:33.656Z,3.60
2022-07-31T06:47:16.215Z,3.28
2022-07-31T06:52:29.013Z,2.90
2022-07-31T06:54:57.939Z,2.85
2022-07-31T06:57:27.491Z,2.95
2022-07-31T06:59:56.575Z,2.97
2022-07-31T07:02:26.358Z,2.88
2022-07-31T07:05:05.164Z,3.17
2022-07-31T07:07:39.211Z,2.97
2022-07-31T07:10:10.533Z,3.42
2022-07-31T07:12:58.523Z,2.90
2022-07-31T07:15:27.848Z,3.08
2022-07-31T07:17:56.994Z,3.05
2022-07-31T07:20:43.762Z,2.92
2022-07-31T07:23:13.889Z,3.22
2022-07-31T07:26:05.345Z,2.40
2022-07-31T07:28:35.404Z,3.10
2022-07-31T07:31:04.891Z,2.42
2022-07-31T07:33:41.418Z,2.55
2022-07-31T07:36:24.922Z,2.63
2022-07-31T07:39:04.862Z,2.30
2022-07-31T07:41:35.084Z,2.65
2022-07-31T07:44:05.908Z,2.33
2022-07-31T07:46:35.353Z,2.25
2022-07-31T07:49:06.887Z,2.15
2022-07-31T07:51:58.422Z,2.00
2022-07-31T07:54:40.938Z,2.75
2022-07-31T07:57:28.182Z,2.33
2022-07-31T08:00:33.303Z,2.47
2022-07-31T08:03:48.650Z,2.30
2022-07-31T08:05:53.493Z,2.17
2022-07-31T08:08:21.859Z,2.17
2022-07-31T08:10:50.279Z,2.08
2022-07-31T08:13:26.697Z,2.10
2022-07-31T08:16:14.695Z,2.00
2022-07-31T08:18:52.916Z,1.60
2022-07-31T08:21:21.777Z,1.70
2022-07-31T08:23:50.395Z,2.20
2022-07-31T08:26:19.176Z,2.28
2022-07-31T08:28:50.922Z,2.10
2022-07-31T08:31:24.773Z,2.33
2022-07-31T08:34:31.414Z,2.08
2022-07-31T08:37:51.850Z,1.80
2022-07-31T08:39:53.015Z,1.70
2022-07-31T08:42:21.376Z,2.08
2022-07-31T08:44:49.980Z,1.80
2022-07-31T08:47:24.779Z,2.20
2022-07-31T08:49:53.877Z,1.80
2022-07-31T08:52:25.267Z,1.55
2022-07-31T08:55:07.237Z,1.42
2022-07-31T08:57:36.421Z,1.58
2022-07-31T09:00:08.837Z,1.88
2022-07-31T09:05:26.648Z,1.40
2022-07-31T09:08:14.628Z,1.38
2022-07-31T09:10:49.655Z,1.48
2022-07-31T09:13:20.199Z,2.15
2022-07-31T09:15:52.591Z,1.63
2022-07-31T09:18:24.707Z,1.40
2022-07-31T09:21:08.536Z,1.60
2022-07-31T09:23:46.195Z,1.10
2022-07-31T09:26:15.562Z,1.33
2022-07-31T09:28:46.849Z,1.40
2022-07-31T09:31:15.864Z,1.30
2022-07-31T09:34:06.692Z,8.25
2022-07-31T09:36:35.419Z,1.85
2022-07-31T09:39:27.956Z,1.40
2022-07-31T09:45:22.517Z,1.45
2022-07-31T09:48:05.688Z,1.60
2022-07-31T09:50:36.908Z,1.73
2022-07-31T09:53:06.612Z,1.50
2022-07-31T09:55:36.572Z,1.50
2022-07-31T09:58:05.369Z,1.33
2022-07-31T10:00:42.847Z,1.45
2022-07-31T10:03:14.492Z,1.67
2022-07-31T10:05:49.132Z,1.35
2022-07-31T10:08:18.963Z,1.60
2022-07-31T10:11:08.156Z,1.42
2022-07-31T10:13:55.353Z,1.50
2022-07-31T10:16:27.676Z,1.55
2022-07-31T10:19:20.090Z,1.40
2022-07-31T10:22:10.569Z,1.80
2022-07-31T10:24:48.074Z,1.88
2022-07-31T10:27:18.962Z,1.55
2022-07-31T10:29:53.457Z,1.95
2022-07-31T10:32:22.732Z,1.40
2022-07-31T10:35:18.304Z,1.60
2022-07-31T10:38:09.226Z,1.58
2022-07-31T10:41:03.857Z,1.50
2022-07-31T10:43:55.671Z,1.40
2022-07-31T10:46:30.629Z,1.33
2022-07-31T10:49:41.499Z,1.58
2022-07-31T10:52:30.217Z,1.60
2022-07-31T10:55:22.880Z,1.77
2022-07-31T10:58:10.961Z,1.65
2022-07-31T11:01:07.338Z,1.50
2022-07-31T11:03:46.522Z,1.40
2022-07-31T11:06:24.701Z,1.30
2022-07-31T11:08:57.580Z,1.70
2022-07-31T11:12:05.871Z,1.80
2022-07-31T11:14:42.682Z,1.67
2022-07-31T11:18:22.027Z,1.88
2022-07-31T11:20:33.409Z,1.60
2022-07-31T11:23:04.253Z,1.80
2022-07-31T11:25:36.238Z,1.80
2022-07-31T11:28:18.935Z,1.83
2022-07-31T11:30:56.108Z,2.03
2022-07-31T11:33:43.059Z,1.83
2022-07-31T11:36:15.252Z,2.00
2022-07-31T11:41:16.130Z,2.08
2022-07-31T11:43:48.997Z,2.05
2022-07-31T11:46:26.115Z,2.70
2022-07-31T11:48:55.199Z,2.40
2022-07-31T11:51:25.240Z,2.20
2022-07-31T11:53:57.442Z,2.72
2022-07-31T11:56:28.473Z,2.00
2022-07-31T11:58:59.754Z,2.00
2022-07-31T12:01:30.334Z,2.20
2022-07-31T12:04:09.240Z,1.90
2022-07-31T12:06:39.190Z,2.20
2022-07-31T12:09:07.941Z,2.20
2022-07-31T12:11:56.836Z,2.20
2022-07-31T12:14:35.573Z,2.78
2022-07-31T12:17:06.552Z,2.70
2022-07-31T12:19:38.651Z,2.15
2022-07-31T12:22:15.177Z,1.95
2022-07-31T12:24:44.061Z,2.25
2022-07-31T12:27:16.781Z,2.00
2022-07-31T12:29:46.574Z,2.15
2022-07-31T12:32:26.522Z,2.20
2022-07-31T12:35:04.188Z,2.20
2022-07-31T12:37:43.285Z,1.88
2022-07-31T12:40:23.325Z,1.85
2022-07-31T12:42:51.866Z,2.20
2022-07-31T12:45:37.350Z,2.13
2022-07-31T12:48:06.847Z,2.65
2022-07-31T12:50:35.740Z,1.95
2022-07-31T12:53:05.771Z,1.45
2022-07-31T12:55:34.748Z,1.83
2022-07-31T12:58:03.435Z,1.95
2022-07-31T13:00:35.752Z,1.90
2022-07-31T13:03:06.679Z,1.80
2022-07-31T13:05:35.572Z,1.90
2022-07-31T13:08:03.893Z,1.80
2022-07-31T13:10:32.611Z,1.98
2022-07-31T13:13:00.981Z,1.98
2022-07-31T13:15:30.595Z,1.98
2022-07-31T13:18:03.953Z,2.05
2022-07-31T13:20:33.049Z,1.52
2022-07-31T13:23:02.718Z,1.80
2022-07-31T13:25:31.616Z,2.72
2022-07-31T13:28:00.306Z,2.33
2022-07-31T13:30:29.305Z,1.60
2022-07-31T13:32:59.087Z,1.90
2022-07-31T13:35:29.246Z,1.73
2022-07-31T13:37:58.298Z,1.90
2022-07-31T13:40:41.075Z,2.40
2022-07-31T13:43:11.203Z,2.08
2022-07-31T13:45:39.828Z,2.22
2022-07-31T13:48:10.615Z,2.33
2022-07-31T13:50:41.579Z,2.00
2022-07-31T13:53:10.736Z,2.08
2022-07-31T13:55:39.407Z,2.00
2022-07-31T13:58:08.451Z,2.35
2022-07-31T14:00:37.446Z,2.10
2022-07-31T14:03:06.076Z,1.98
2022-07-31T14:05:40.133Z,2.05
2022-07-31T14:08:32.594Z,2.05
2022-07-31T14:10:58.609Z,2.03
2022-07-31T14:13:28.840Z,2.55
2022-07-31T14:15:58.997Z,2.20
2022-07-31T14:18:27.403Z,2.28
2022-07-31T14:20:57.319Z,2.00
2022-07-31T14:23:33.304Z,2.17
2022-07-31T14:26:05.114Z,2.47
2022-07-31T14:28:33.587Z,2.45
2022-07-31T14:31:01.973Z,1.98
2022-07-31T14:33:31.465Z,2.58
2022-07-31T14:36:03.644Z,2.20
2022-07-31T14:38:32.311Z,2.33
2022-07-31T14:41:00.833Z,1.92
2022-07-31T14:43:30.759Z,2.45
2022-07-31T14:46:01.850Z,2.55
2022-07-31T14:48:31.293Z,2.80
2022-07-31T14:51:02.985Z,2.30
2022-07-31T14:53:31.465Z,2.90
2022-07-31T14:56:03.975Z,1.80
2022-07-31T14:58:34.315Z,1.88
2022-07-31T15:01:22.632Z,2.67
2022-07-31T15:03:55.027Z,2.10
2022-07-31T15:06:39.768Z,3.00
2022-07-31T15:09:15.017Z,2.22
2022-07-31T15:11:59.642Z,2.72
2022-07-31T15:14:30.236Z,2.38
2022-07-31T15:16:58.998Z,2.35
2022-07-31T15:19:27.787Z,2.30
2022-07-31T15:22:10.470Z,2.28
2022-07-31T15:24:48.529Z,2.10
2022-07-31T15:27:18.536Z,2.58
2022-07-31T15:30:03.931Z,2.00
2022-07-31T15:32:35.783Z,2.38
2022-07-31T15:35:04.751Z,2.92
2022-07-31T15:37:37.280Z,2.50
2022-07-31T15:40:09.518Z,2.45
2022-07-31T15:42:41.652Z,2.42
2022-07-31T15:45:12.962Z,2.35
2022-07-31T15:47:44.315Z,2.13
2022-07-31T15:50:15.640Z,2.53
2022-07-31T15:52:46.077Z,2.47
2022-07-31T15:55:14.848Z,2.60
2022-07-31T15:57:46.754Z,2.85
2022-07-31T16:00:16.130Z,2.30
2022-07-31T16:02:45.569Z,2.95
2022-07-31T16:05:36.220Z,2.40
2022-07-31T16:08:32.081Z,2.58
2022-07-31T16:10:55.228Z,1.92
2022-07-31T16:13:24.507Z,2.08
2022-07-31T16:15:53.069Z,2.03
2022-07-31T16:18:21.931Z,2.10
2022-07-31T16:20:50.238Z,2.38
2022-07-31T16:23:20.235Z,1.95
2022-07-31T16:25:48.551Z,1.88
2022-07-31T16:28:19.723Z,2.15
2022-07-31T16:30:48.333Z,2.35
2022-07-31T16:33:17.437Z,2.10
2022-07-31T16:35:46.540Z,2.42
2022-07-31T16:38:16.608Z,4.63
2022-07-31T16:40:48.768Z,2.50
2022-07-31T16:43:47.755Z,2.25
2022-07-31T16:46:09.271Z,2.20
2022-07-31T16:48:38.172Z,1.70
2022-07-31T16:51:07.566Z,2.28
2022-07-31T16:54:14.050Z,1.90
2022-07-31T16:56:26.685Z,2.08
2022-07-31T16:58:56.034Z,2.22
2022-07-31T17:01:57.350Z,1.75
2022-07-31T17:04:15.010Z,1.50
2022-07-31T17:06:43.269Z,2.22
2022-07-31T17:09:15.167Z,1.98
2022-07-31T17:11:49.820Z,2.50
2022-07-31T17:14:20.247Z,1.50
2022-07-31T17:16:50.115Z,1.52
2022-07-31T17:19:41.359Z,1.58
2022-07-31T17:22:08.393Z,1.35
2022-07-31T17:24:40.947Z,1.70
2022-07-31T17:27:11.441Z,1.23
2022-07-31T17:29:40.383Z,1.33
2022-07-31T17:32:11.064Z,1.40
2022-07-31T17:34:40.619Z,1.40
2022-07-31T17:37:10.319Z,1.55
2022-07-31T17:39:39.285Z,1.83
2022-07-31T17:42:10.503Z,1.85
2022-07-31T17:44:41.013Z,1.70
2022-07-31T17:47:21.068Z,1.70
2022-07-31T17:49:49.556Z,1.42
2022-07-31T17:52:17.937Z,1.48
2022-07-31T17:54:46.723Z,1.80
2022-07-31T17:57:18.068Z,1.58
2022-07-31T17:59:47.186Z,1.90
2022-07-31T18:02:15.565Z,1.42
2022-07-31T18:04:44.492Z,1.50
2022-07-31T18:07:12.925Z,1.30
2022-07-31T18:09:41.436Z,1.50
2022-07-31T18:12:13.578Z,1.50
2022-07-31T18:14:47.504Z,1.40
2022-07-31T18:17:16.459Z,1.50
2022-07-31T18:19:46.291Z,1.67
2022-07-31T18:22:15.075Z,1.70
2022-07-31T18:24:43.401Z,1.73
2022-07-31T18:27:11.835Z,1.27
2022-07-31T18:29:40.572Z,1.42
2022-07-31T18:32:10.437Z,1.10
2022-07-31T18:34:38.924Z,1.20
2022-07-31T18:37:08.381Z,1.35
2022-07-31T18:39:47.944Z,1.50
2022-07-31T18:42:17.460Z,1.50
2022-07-31T18:44:45.696Z,1.40
2022-07-31T18:47:15.716Z,1.30
2022-07-31T18:50:59.297Z,1.17
2022-07-31T18:52:32.649Z,1.45
2022-07-31T18:55:01.024Z,1.77
2022-07-31T18:57:30.425Z,1.58
2022-07-31T18:59:58.968Z,1.40
2022-07-31T19:02:29.156Z,1.38
2022-07-31T19:04:57.632Z,1.30
2022-07-31T19:07:27.578Z,1.42
2022-07-31T19:09:56.213Z,1.80
2022-07-31T19:12:24.876Z,1.30
2022-07-31T19:14:53.195Z,1.30
2022-07-31T19:17:21.711Z,1.55
2022-07-31T19:20:01.373Z,2.40
2022-07-31T19:22:30.777Z,1.40
2022-07-31T19:24:59.357Z,1.10
2022-07-31T19:27:46.978Z,1.20
2022-07-31T19:30:16.658Z,1.27
2022-07-31T19:32:45.503Z,1.40
2022-07-31T19:35:17.317Z,1.33
2022-07-31T19:37:45.926Z,1.30
2022-07-31T19:40:28.816Z,1.10
2022-07-31T19:42:59.946Z,1.40
2022-07-31T19:45:29.191Z,1.30
2022-07-31T19:47:57.865Z,1.30
2022-07-31T19:50:27.768Z,1.50
2022-07-31T19:52:56.172Z,1.40
2022-07-31T19:55:25.298Z,1.35
2022-07-31T19:57:53.742Z,1.52
2022-07-31T20:00:22.440Z,1.60
2022-07-31T20:02:51.132Z,1.80
2022-07-31T20:05:19.581Z,1.20
2022-07-31T20:07:49.378Z,1.27
2022-07-31T20:10:18.226Z,1.35
2022-07-31T20:12:46.676Z,1.60
2022-07-31T20:15:18.313Z,1.48
2022-07-31T20:17:46.774Z,1.52
2022-07-31T20:20:16.259Z,1.23
2022-07-31T20:22:44.854Z,1.08
2022-07-31T20:25:20.182Z,1.60
2022-07-31T20:27:50.339Z,1.85
2022-07-31T20:30:22.281Z,1.35
2022-07-31T20:32:52.750Z,1.70
2022-07-31T20:35:29.200Z,1.52
2022-07-31T20:38:01.527Z,1.45
2022-07-31T20:40:31.640Z,1.60
2022-07-31T20:43:00.598Z,1.67
2022-07-31T20:45:31.318Z,1.17
2022-07-31T20:48:02.170Z,1.67
2022-07-31T20:50:31.045Z,1.55
2022-07-31T20:52:59.647Z,1.67
2022-07-31T20:55:28.259Z,1.30
2022-07-31T20:58:01.926Z,1.30
2022-07-31T21:00:36.047Z,1.23
2022-07-31T21:03:05.746Z,1.25
2022-07-31T21:05:38.601Z,2.03
2022-07-31T21:08:07.611Z,1.15
2022-07-31T21:10:37.010Z,1.02
2022-07-31T21:13:06.753Z,1.20
2022-07-31T21:15:42.194Z,1.02
2022-07-31T21:18:17.780Z,1.48
2022-07-31T21:20:51.324Z,1.10
2022-07-31T21:23:26.835Z,1.08
2022-07-31T21:25:59.133Z,1.50
2022-07-31T21:28:29.497Z,1.30
2022-07-31T21:30:58.835Z,1.10
2022-07-31T21:33:28.897Z,1.17
2022-07-31T21:35:58.047Z,1.45
2022-07-31T21:38:28.357Z,1.48
2022-07-31T21:40:57.464Z,1.55
2022-07-31T21:43:36.454Z,1.25
2022-07-31T21:46:22.936Z,1.70
2022-07-31T21:51:20.602Z,1.73
2022-07-31T21:53:49.241Z,1.45
2022-07-31T21:56:17.549Z,1.60
2022-07-31T21:58:47.259Z,1.55
2022-07-31T22:01:15.752Z,1.48
2022-07-31T22:03:44.403Z,1.55
2022-07-31T22:06:30.406Z,1.45
2022-07-31T22:08:59.119Z,1.40
2022-07-31T22:11:27.411Z,1.83
2022-07-31T22:13:57.298Z,1.58
2022-07-31T22:16:25.971Z,1.45
2022-07-31T22:18:56.425Z,1.33
2022-07-31T22:21:25.930Z,1.50
2022-07-31T22:23:55.633Z,1.90
2022-07-31T22:26:25.000Z,2.25
2022-07-31T22:28:57.933Z,1.80
2022-07-31T22:31:27.032Z,1.42
2022-07-31T22:33:55.861Z,1.20
2022-07-31T22:36:26.586Z,1.48
2022-07-31T22:38:55.007Z,1.65
2022-07-31T22:41:23.609Z,1.75
2022-07-31T22:44:13.951Z,1.67
2022-07-31T22:46:43.735Z,1.45
2022-07-31T22:49:12.807Z,1.45
2022-07-31T22:51:46.216Z,1.55
2022-07-31T22:54:15.166Z,1.60
2022-07-31T22:56:43.736Z,1.55
2022-07-31T22:59:12.536Z,1.55
2022-07-31T23:01:42.740Z,1.60
2022-07-31T23:04:11.632Z,1.60
2022-07-31T23:06:40.432Z,1.67
2022-07-31T23:09:08.703Z,1.30
2022-07-31T23:11:37.078Z,1.50
2022-07-31T23:14:05.616Z,1.58
2022-07-31T23:16:34.135Z,1.40
2022-07-31T23:19:04.029Z,1.40
2022-07-31T23:21:32.715Z,1.80
2022-07-31T23:24:01.093Z,1.30
2022-07-31T23:26:30.033Z,1.40
2022-07-31T23:28:58.629Z,1.33
2022-07-31T23:31:27.330Z,1.45
2022-07-31T23:33:57.755Z,1.40
2022-07-31T23:36:27.498Z,1.42
2022-07-31T23:38:58.210Z,1.40
2022-07-31T23:41:43.925Z,1.45
2022-07-31T23:44:12.558Z,1.88
2022-07-31T23:46:47.197Z,1.67
2022-07-31T23:49:18.408Z,1.50
2022-07-31T23:51:48.101Z,1.35
2022-07-31T23:54:16.749Z,1.50
2022-07-31T23:56:45.565Z,1.70
2022-07-31T23:59:13.854Z,1.50
